sensor_id;sensor_type;location;lat;lon;timestamp;P1;durP1;ratioP1;P2;durP2;ratioP2
22211;SDS011;11275;52.488;13.462;2023-08-06T00:00:23;4.75;;;4.10;;
22211;SDS011;11275;52.488;13.462;2023-08-06T00:02:49;4.05;;;3.65;;
22211;SDS011;11275;52.488;13.462;2023-08-06T00:05:15;4.88;;;4.10;;
22211;SDS011;11275;52.488;13.462;2023-08-06T00:07:46;4.38;;;3.97;;
22211;SDS011;11275;52.488;13.462;2023-08-06T00:10:12;3.92;;;3.63;;
22211;SDS011;11275;52.488;13.462;2023-08-06T00:12:37;4.40;;;3.60;;
22211;SDS011;11275;52.488;13.462;2023-08-06T00:15:03;4.22;;;3.83;;
22211;SDS011;11275;52.488;13.462;2023-08-06T00:17:29;4.05;;;3.40;;
22211;SDS011;11275;52.488;13.462;2023-08-06T00:19:55;4.60;;;3.65;;
22211;SDS011;11275;52.488;13.462;2023-08-06T00:22:20;3.92;;;3.53;;
22211;SDS011;11275;52.488;13.462;2023-08-06T00:24:46;3.75;;;3.45;;
22211;SDS011;11275;52.488;13.462;2023-08-06T00:27:12;4.63;;;4.00;;
22211;SDS011;11275;52.488;13.462;2023-08-06T00:29:37;4.82;;;3.47;;
22211;SDS011;11275;52.488;13.462;2023-08-06T00:32:03;3.70;;;3.40;;
22211;SDS011;11275;52.488;13.462;2023-08-06T00:34:29;4.20;;;3.80;;
22211;SDS011;11275;52.488;13.462;2023-08-06T00:36:54;5.75;;;4.25;;
22211;SDS011;11275;52.488;13.462;2023-08-06T00:39:20;5.32;;;3.63;;
22211;SDS011;11275;52.488;13.462;2023-08-06T00:41:45;4.85;;;3.28;;
22211;SDS011;11275;52.488;13.462;2023-08-06T00:44:11;5.25;;;3.95;;
22211;SDS011;11275;52.488;13.462;2023-08-06T00:46:37;4.45;;;3.80;;
22211;SDS011;11275;52.488;13.462;2023-08-06T00:49:03;4.00;;;3.70;;
22211;SDS011;11275;52.488;13.462;2023-08-06T00:51:30;4.35;;;3.90;;
22211;SDS011;11275;52.488;13.462;2023-08-06T00:53:56;4.72;;;4.28;;
22211;SDS011;11275;52.488;13.462;2023-08-06T00:56:22;4.28;;;3.90;;
22211;SDS011;11275;52.488;13.462;2023-08-06T00:58:49;4.70;;;4.30;;
22211;SDS011;11275;52.488;13.462;2023-08-06T01:01:15;4.53;;;4.13;;
22211;SDS011;11275;52.488;13.462;2023-08-06T01:03:40;5.35;;;4.40;;
22211;SDS011;11275;52.488;13.462;2023-08-06T01:06:06;4.32;;;3.90;;
22211;SDS011;11275;52.488;13.462;2023-08-06T01:14:02;4.35;;;3.80;;
22211;SDS011;11275;52.488;13.462;2023-08-06T01:16:37;4.80;;;3.85;;
22211;SDS011;11275;52.488;13.462;2023-08-06T01:19:04;3.95;;;3.65;;
22211;SDS011;11275;52.488;13.462;2023-08-06T01:21:40;4.25;;;3.85;;
22211;SDS011;11275;52.488;13.462;2023-08-06T01:24:05;4.28;;;3.85;;
22211;SDS011;11275;52.488;13.462;2023-08-06T01:26:45;4.13;;;3.72;;
22211;SDS011;11275;52.488;13.462;2023-08-06T01:29:22;4.68;;;4.25;;
22211;SDS011;11275;52.488;13.462;2023-08-06T01:32:15;4.20;;;3.90;;
22211;SDS011;11275;52.488;13.462;2023-08-06T01:34:41;4.32;;;3.95;;
22211;SDS011;11275;52.488;13.462;2023-08-06T01:37:10;4.00;;;3.70;;
22211;SDS011;11275;52.488;13.462;2023-08-06T01:39:37;4.50;;;4.10;;
22211;SDS011;11275;52.488;13.462;2023-08-06T01:42:07;4.55;;;4.10;;
22211;SDS011;11275;52.488;13.462;2023-08-06T01:44:33;4.25;;;3.85;;
22211;SDS011;11275;52.488;13.462;2023-08-06T01:46:58;4.40;;;4.10;;
22211;SDS011;11275;52.488;13.462;2023-08-06T01:49:24;4.40;;;4.00;;
22211;SDS011;11275;52.488;13.462;2023-08-06T01:51:50;4.70;;;4.15;;
22211;SDS011;11275;52.488;13.462;2023-08-06T01:54:15;4.70;;;4.30;;
22211;SDS011;11275;52.488;13.462;2023-08-06T01:56:41;4.85;;;4.35;;
22211;SDS011;11275;52.488;13.462;2023-08-06T01:59:07;5.03;;;4.55;;
22211;SDS011;11275;52.488;13.462;2023-08-06T02:01:32;5.20;;;4.80;;
22211;SDS011;11275;52.488;13.462;2023-08-06T02:03:58;5.40;;;4.90;;
22211;SDS011;11275;52.488;13.462;2023-08-06T02:06:23;5.60;;;5.15;;
22211;SDS011;11275;52.488;13.462;2023-08-06T02:08:49;5.10;;;4.63;;
22211;SDS011;11275;52.488;13.462;2023-08-06T02:11:15;5.43;;;4.93;;
22211;SDS011;11275;52.488;13.462;2023-08-06T02:13:40;5.40;;;5.00;;
22211;SDS011;11275;52.488;13.462;2023-08-06T02:16:07;5.78;;;5.28;;
22211;SDS011;11275;52.488;13.462;2023-08-06T02:18:33;5.60;;;5.15;;
22211;SDS011;11275;52.488;13.462;2023-08-06T02:20:59;5.97;;;5.22;;
22211;SDS011;11275;52.488;13.462;2023-08-06T02:23:25;5.40;;;4.90;;
22211;SDS011;11275;52.488;13.462;2023-08-06T02:26:00;6.63;;;6.03;;
22211;SDS011;11275;52.488;13.462;2023-08-06T02:28:26;5.40;;;4.90;;
22211;SDS011;11275;52.488;13.462;2023-08-06T02:30:53;5.10;;;4.60;;
22211;SDS011;11275;52.488;13.462;2023-08-06T02:33:19;5.10;;;4.60;;
22211;SDS011;11275;52.488;13.462;2023-08-06T02:35:44;5.05;;;4.65;;
22211;SDS011;11275;52.488;13.462;2023-08-06T02:38:10;5.05;;;4.57;;
22211;SDS011;11275;52.488;13.462;2023-08-06T02:40:35;4.68;;;4.30;;
22211;SDS011;11275;52.488;13.462;2023-08-06T02:43:01;4.60;;;4.18;;
22211;SDS011;11275;52.488;13.462;2023-08-06T02:45:27;4.03;;;3.63;;
22211;SDS011;11275;52.488;13.462;2023-08-06T02:47:53;4.05;;;3.75;;
22211;SDS011;11275;52.488;13.462;2023-08-06T02:50:19;4.30;;;3.90;;
22211;SDS011;11275;52.488;13.462;2023-08-06T02:52:44;4.15;;;3.85;;
22211;SDS011;11275;52.488;13.462;2023-08-06T02:55:10;4.30;;;3.60;;
22211;SDS011;11275;52.488;13.462;2023-08-06T02:57:36;4.63;;;4.22;;
22211;SDS011;11275;52.488;13.462;2023-08-06T03:00:01;4.20;;;3.80;;
22211;SDS011;11275;52.488;13.462;2023-08-06T03:02:27;5.50;;;5.00;;
22211;SDS011;11275;52.488;13.462;2023-08-06T03:04:53;5.07;;;4.68;;
22211;SDS011;11275;52.488;13.462;2023-08-06T03:07:19;4.47;;;4.07;;
22211;SDS011;11275;52.488;13.462;2023-08-06T03:09:44;5.28;;;4.78;;
22211;SDS011;11275;52.488;13.462;2023-08-06T03:12:10;4.45;;;4.05;;
22211;SDS011;11275;52.488;13.462;2023-08-06T03:14:36;5.05;;;4.60;;
22211;SDS011;11275;52.488;13.462;2023-08-06T03:17:01;4.82;;;4.43;;
22211;SDS011;11275;52.488;13.462;2023-08-06T03:19:27;5.22;;;4.80;;
22211;SDS011;11275;52.488;13.462;2023-08-06T03:21:53;4.85;;;4.45;;
22211;SDS011;11275;52.488;13.462;2023-08-06T03:24:19;5.13;;;4.63;;
22211;SDS011;11275;52.488;13.462;2023-08-06T03:26:45;4.95;;;4.55;;
22211;SDS011;11275;52.488;13.462;2023-08-06T03:29:10;5.15;;;4.65;;
22211;SDS011;11275;52.488;13.462;2023-08-06T03:31:36;6.07;;;4.78;;
22211;SDS011;11275;52.488;13.462;2023-08-06T03:34:01;4.88;;;4.55;;
22211;SDS011;11275;52.488;13.462;2023-08-06T03:36:27;4.78;;;4.28;;
22211;SDS011;11275;52.488;13.462;2023-08-06T03:38:53;4.70;;;4.30;;
22211;SDS011;11275;52.488;13.462;2023-08-06T03:41:18;5.03;;;4.53;;
22211;SDS011;11275;52.488;13.462;2023-08-06T03:43:44;4.82;;;4.40;;
22211;SDS011;11275;52.488;13.462;2023-08-06T03:46:09;5.28;;;4.78;;
22211;SDS011;11275;52.488;13.462;2023-08-06T03:48:35;4.78;;;4.38;;
22211;SDS011;11275;52.488;13.462;2023-08-06T03:51:00;4.78;;;4.38;;
22211;SDS011;11275;52.488;13.462;2023-08-06T03:53:27;5.20;;;4.80;;
22211;SDS011;11275;52.488;13.462;2023-08-06T03:55:52;4.70;;;4.30;;
22211;SDS011;11275;52.488;13.462;2023-08-06T03:58:18;5.28;;;4.78;;
22211;SDS011;11275;52.488;13.462;2023-08-06T04:00:44;5.15;;;4.65;;
22211;SDS011;11275;52.488;13.462;2023-08-06T04:03:09;5.90;;;5.15;;
22211;SDS011;11275;52.488;13.462;2023-08-06T04:05:35;5.55;;;5.05;;
22211;SDS011;11275;52.488;13.462;2023-08-06T04:08:00;5.63;;;5.10;;
22211;SDS011;11275;52.488;13.462;2023-08-06T04:10:26;4.68;;;4.28;;
22211;SDS011;11275;52.488;13.462;2023-08-06T04:12:52;4.97;;;4.45;;
22211;SDS011;11275;52.488;13.462;2023-08-06T04:15:17;4.85;;;4.35;;
22211;SDS011;11275;52.488;13.462;2023-08-06T04:17:43;5.90;;;4.68;;
22211;SDS011;11275;52.488;13.462;2023-08-06T04:20:08;4.88;;;4.50;;
22211;SDS011;11275;52.488;13.462;2023-08-06T04:22:34;5.30;;;4.90;;
22211;SDS011;11275;52.488;13.462;2023-08-06T04:25:00;4.70;;;4.28;;
22211;SDS011;11275;52.488;13.462;2023-08-06T04:27:25;4.97;;;4.57;;
22211;SDS011;11275;52.488;13.462;2023-08-06T04:29:51;4.85;;;4.45;;
22211;SDS011;11275;52.488;13.462;2023-08-06T04:32:16;5.50;;;5.00;;
22211;SDS011;11275;52.488;13.462;2023-08-06T04:34:44;4.82;;;4.47;;
22211;SDS011;11275;52.488;13.462;2023-08-06T04:37:10;5.07;;;4.68;;
22211;SDS011;11275;52.488;13.462;2023-08-06T04:39:35;5.00;;;4.60;;
22211;SDS011;11275;52.488;13.462;2023-08-06T04:42:01;5.60;;;5.05;;
22211;SDS011;11275;52.488;13.462;2023-08-06T04:44:27;5.30;;;4.80;;
22211;SDS011;11275;52.488;13.462;2023-08-06T04:46:52;5.60;;;5.10;;
22211;SDS011;11275;52.488;13.462;2023-08-06T04:49:20;5.20;;;4.80;;
22211;SDS011;11275;52.488;13.462;2023-08-06T04:51:46;5.22;;;4.68;;
22211;SDS011;11275;52.488;13.462;2023-08-06T04:54:11;5.63;;;5.13;;
22211;SDS011;11275;52.488;13.462;2023-08-06T04:56:37;5.00;;;4.60;;
22211;SDS011;11275;52.488;13.462;2023-08-06T04:59:02;4.80;;;4.40;;
22211;SDS011;11275;52.488;13.462;2023-08-06T05:01:28;4.63;;;4.22;;
22211;SDS011;11275;52.488;13.462;2023-08-06T05:03:54;4.53;;;4.22;;
22211;SDS011;11275;52.488;13.462;2023-08-06T05:06:19;4.60;;;4.20;;
22211;SDS011;11275;52.488;13.462;2023-08-06T05:08:45;4.57;;;4.18;;
22211;SDS011;11275;52.488;13.462;2023-08-06T05:11:11;4.90;;;4.50;;
22211;SDS011;11275;52.488;13.462;2023-08-06T05:13:36;4.80;;;4.30;;
22211;SDS011;11275;52.488;13.462;2023-08-06T05:16:02;4.35;;;3.95;;
22211;SDS011;11275;52.488;13.462;2023-08-06T05:18:28;3.97;;;3.67;;
22211;SDS011;11275;52.488;13.462;2023-08-06T05:20:55;4.82;;;4.28;;
22211;SDS011;11275;52.488;13.462;2023-08-06T05:23:21;4.70;;;4.30;;
22211;SDS011;11275;52.488;13.462;2023-08-06T05:25:46;4.60;;;4.30;;
22211;SDS011;11275;52.488;13.462;2023-08-06T05:28:12;4.90;;;4.50;;
22211;SDS011;11275;52.488;13.462;2023-08-06T05:30:40;5.30;;;4.90;;
22211;SDS011;11275;52.488;13.462;2023-08-06T05:33:06;5.43;;;5.03;;
22211;SDS011;11275;52.488;13.462;2023-08-06T05:35:32;5.78;;;5.28;;
22211;SDS011;11275;52.488;13.462;2023-08-06T05:37:58;5.95;;;4.90;;
22211;SDS011;11275;52.488;13.462;2023-08-06T05:40:23;5.97;;;5.47;;
22211;SDS011;11275;52.488;13.462;2023-08-06T05:42:50;4.90;;;4.50;;
22211;SDS011;11275;52.488;13.462;2023-08-06T05:45:17;4.80;;;4.40;;
22211;SDS011;11275;52.488;13.462;2023-08-06T05:47:43;4.90;;;4.50;;
22211;SDS011;11275;52.488;13.462;2023-08-06T05:50:09;5.00;;;4.60;;
22211;SDS011;11275;52.488;13.462;2023-08-06T05:52:35;4.88;;;4.47;;
22211;SDS011;11275;52.488;13.462;2023-08-06T05:55:00;4.40;;;4.10;;
22211;SDS011;11275;52.488;13.462;2023-08-06T05:57:26;5.05;;;4.65;;
22211;SDS011;11275;52.488;13.462;2023-08-06T05:59:52;5.03;;;4.63;;
22211;SDS011;11275;52.488;13.462;2023-08-06T06:02:17;4.93;;;4.53;;
22211;SDS011;11275;52.488;13.462;2023-08-06T06:04:43;5.65;;;5.15;;
22211;SDS011;11275;52.488;13.462;2023-08-06T06:07:09;5.28;;;4.88;;
22211;SDS011;11275;52.488;13.462;2023-08-06T06:09:35;4.93;;;4.57;;
22211;SDS011;11275;52.488;13.462;2023-08-06T06:12:00;5.22;;;4.82;;
22211;SDS011;11275;52.488;13.462;2023-08-06T06:14:26;4.50;;;4.10;;
22211;SDS011;11275;52.488;13.462;2023-08-06T06:16:51;4.82;;;4.45;;
22211;SDS011;11275;52.488;13.462;2023-08-06T06:19:18;4.80;;;4.40;;
22211;SDS011;11275;52.488;13.462;2023-08-06T06:21:43;5.30;;;4.80;;
22211;SDS011;11275;52.488;13.462;2023-08-06T06:24:09;5.35;;;4.88;;
22211;SDS011;11275;52.488;13.462;2023-08-06T06:26:34;5.30;;;4.90;;
22211;SDS011;11275;52.488;13.462;2023-08-06T06:29:00;4.53;;;4.18;;
22211;SDS011;11275;52.488;13.462;2023-08-06T06:31:26;4.70;;;4.30;;
22211;SDS011;11275;52.488;13.462;2023-08-06T06:33:51;4.88;;;4.47;;
22211;SDS011;11275;52.488;13.462;2023-08-06T06:36:19;4.63;;;4.22;;
22211;SDS011;11275;52.488;13.462;2023-08-06T06:38:45;4.35;;;3.95;;
22211;SDS011;11275;52.488;13.462;2023-08-06T06:41:11;4.80;;;4.40;;
22211;SDS011;11275;52.488;13.462;2023-08-06T06:43:36;5.05;;;4.65;;
22211;SDS011;11275;52.488;13.462;2023-08-06T06:46:04;5.30;;;4.90;;
22211;SDS011;11275;52.488;13.462;2023-08-06T06:48:32;4.97;;;4.57;;
22211;SDS011;11275;52.488;13.462;2023-08-06T06:50:58;5.82;;;5.32;;
22211;SDS011;11275;52.488;13.462;2023-08-06T06:53:24;5.40;;;4.90;;
22211;SDS011;11275;52.488;13.462;2023-08-06T06:56:00;6.85;;;4.72;;
22211;SDS011;11275;52.488;13.462;2023-08-06T06:58:27;5.70;;;5.30;;
22211;SDS011;11275;52.488;13.462;2023-08-06T07:00:52;5.20;;;4.80;;
22211;SDS011;11275;52.488;13.462;2023-08-06T07:03:19;5.68;;;5.18;;
22211;SDS011;11275;52.488;13.462;2023-08-06T07:05:45;5.30;;;4.90;;
22211;SDS011;11275;52.488;13.462;2023-08-06T07:08:11;5.22;;;4.82;;
22211;SDS011;11275;52.488;13.462;2023-08-06T07:10:37;5.28;;;4.88;;
22211;SDS011;11275;52.488;13.462;2023-08-06T07:13:03;6.18;;;5.60;;
22211;SDS011;11275;52.488;13.462;2023-08-06T07:15:29;6.45;;;5.70;;
22211;SDS011;11275;52.488;13.462;2023-08-06T07:17:54;5.70;;;5.20;;
22211;SDS011;11275;52.488;13.462;2023-08-06T07:20:20;5.90;;;5.40;;
22211;SDS011;11275;52.488;13.462;2023-08-06T07:22:46;5.72;;;5.22;;
22211;SDS011;11275;52.488;13.462;2023-08-06T07:25:11;5.45;;;4.95;;
22211;SDS011;11275;52.488;13.462;2023-08-06T07:27:37;5.40;;;4.90;;
22211;SDS011;11275;52.488;13.462;2023-08-06T07:30:04;5.35;;;4.95;;
22211;SDS011;11275;52.488;13.462;2023-08-06T07:32:30;5.35;;;4.95;;
22211;SDS011;11275;52.488;13.462;2023-08-06T07:34:56;5.43;;;4.93;;
22211;SDS011;11275;52.488;13.462;2023-08-06T07:37:25;5.32;;;4.93;;
22211;SDS011;11275;52.488;13.462;2023-08-06T07:39:53;5.57;;;5.15;;
22211;SDS011;11275;52.488;13.462;2023-08-06T07:42:22;5.72;;;5.22;;
22211;SDS011;11275;52.488;13.462;2023-08-06T07:44:54;5.93;;;5.43;;
22211;SDS011;11275;52.488;13.462;2023-08-06T07:47:21;5.00;;;4.60;;
22211;SDS011;11275;52.488;13.462;2023-08-06T07:49:47;5.20;;;4.70;;
22211;SDS011;11275;52.488;13.462;2023-08-06T07:52:12;4.93;;;4.43;;
22211;SDS011;11275;52.488;13.462;2023-08-06T07:54:38;5.22;;;4.75;;
22211;SDS011;11275;52.488;13.462;2023-08-06T07:57:04;5.20;;;4.80;;
22211;SDS011;11275;52.488;13.462;2023-08-06T07:59:30;5.10;;;4.70;;
22211;SDS011;11275;52.488;13.462;2023-08-06T08:01:55;4.50;;;4.20;;
22211;SDS011;11275;52.488;13.462;2023-08-06T08:04:21;4.80;;;4.40;;
22211;SDS011;11275;52.488;13.462;2023-08-06T08:06:47;4.85;;;4.45;;
22211;SDS011;11275;52.488;13.462;2023-08-06T08:09:13;4.70;;;4.30;;
22211;SDS011;11275;52.488;13.462;2023-08-06T08:11:39;4.50;;;4.10;;
22211;SDS011;11275;52.488;13.462;2023-08-06T08:14:05;4.18;;;3.88;;
22211;SDS011;11275;52.488;13.462;2023-08-06T08:16:31;4.30;;;3.90;;
22211;SDS011;11275;52.488;13.462;2023-08-06T08:18:57;3.90;;;3.58;;
22211;SDS011;11275;52.488;13.462;2023-08-06T08:21:22;4.65;;;4.10;;
22211;SDS011;11275;52.488;13.462;2023-08-06T08:23:49;4.15;;;3.75;;
22211;SDS011;11275;52.488;13.462;2023-08-06T08:26:15;4.82;;;4.10;;
22211;SDS011;11275;52.488;13.462;2023-08-06T08:28:41;4.03;;;3.67;;
22211;SDS011;11275;52.488;13.462;2023-08-06T08:31:10;4.20;;;3.80;;
22211;SDS011;11275;52.488;13.462;2023-08-06T08:33:36;4.03;;;3.72;;
22211;SDS011;11275;52.488;13.462;2023-08-06T08:36:05;4.43;;;4.07;;
22211;SDS011;11275;52.488;13.462;2023-08-06T08:38:30;3.97;;;3.65;;
22211;SDS011;11275;52.488;13.462;2023-08-06T08:40:56;4.13;;;3.72;;
22211;SDS011;11275;52.488;13.462;2023-08-06T08:43:22;4.68;;;3.90;;
22211;SDS011;11275;52.488;13.462;2023-08-06T08:45:52;4.50;;;4.10;;
22211;SDS011;11275;52.488;13.462;2023-08-06T08:48:20;4.82;;;4.43;;
22211;SDS011;11275;52.488;13.462;2023-08-06T08:50:48;5.63;;;5.13;;
22211;SDS011;11275;52.488;13.462;2023-08-06T08:53:15;6.10;;;5.50;;
22211;SDS011;11275;52.488;13.462;2023-08-06T08:55:42;6.07;;;5.57;;
22211;SDS011;11275;52.488;13.462;2023-08-06T08:58:09;6.68;;;6.07;;
22211;SDS011;11275;52.488;13.462;2023-08-06T09:00:35;6.10;;;5.55;;
22211;SDS011;11275;52.488;13.462;2023-08-06T09:03:01;5.82;;;5.32;;
22211;SDS011;11275;52.488;13.462;2023-08-06T09:05:31;5.45;;;5.03;;
22211;SDS011;11275;52.488;13.462;2023-08-06T09:08:00;6.07;;;5.50;;
22211;SDS011;11275;52.488;13.462;2023-08-06T09:10:28;5.80;;;5.30;;
22211;SDS011;11275;52.488;13.462;2023-08-06T09:12:54;5.65;;;5.15;;
22211;SDS011;11275;52.488;13.462;2023-08-06T09:15:23;6.03;;;5.53;;
22211;SDS011;11275;52.488;13.462;2023-08-06T09:17:49;6.30;;;5.53;;
22211;SDS011;11275;52.488;13.462;2023-08-06T09:20:15;5.85;;;5.35;;
22211;SDS011;11275;52.488;13.462;2023-08-06T09:22:41;6.20;;;5.70;;
22211;SDS011;11275;52.488;13.462;2023-08-06T09:25:07;5.78;;;5.38;;
22211;SDS011;11275;52.488;13.462;2023-08-06T09:27:37;6.25;;;5.75;;
22211;SDS011;11275;52.488;13.462;2023-08-06T09:30:03;6.75;;;6.15;;
22211;SDS011;11275;52.488;13.462;2023-08-06T09:32:47;6.82;;;6.30;;
22211;SDS011;11275;52.488;13.462;2023-08-06T09:35:16;6.30;;;5.80;;
22211;SDS011;11275;52.488;13.462;2023-08-06T09:37:43;6.57;;;5.97;;
22211;SDS011;11275;52.488;13.462;2023-08-06T09:40:27;5.90;;;5.45;;
22211;SDS011;11275;52.488;13.462;2023-08-06T09:42:55;6.13;;;5.63;;
22211;SDS011;11275;52.488;13.462;2023-08-06T09:45:22;5.70;;;5.30;;
22211;SDS011;11275;52.488;13.462;2023-08-06T09:47:49;6.85;;;6.20;;
22211;SDS011;11275;52.488;13.462;2023-08-06T09:50:20;6.20;;;5.75;;
22211;SDS011;11275;52.488;13.462;2023-08-06T09:52:46;6.47;;;5.97;;
22211;SDS011;11275;52.488;13.462;2023-08-06T09:55:15;7.03;;;6.53;;
22211;SDS011;11275;52.488;13.462;2023-08-06T09:57:41;7.13;;;6.53;;
22211;SDS011;11275;52.488;13.462;2023-08-06T10:00:08;6.32;;;5.82;;
22211;SDS011;11275;52.488;13.462;2023-08-06T10:02:37;6.90;;;6.40;;
22211;SDS011;11275;52.488;13.462;2023-08-06T10:05:04;5.20;;;4.80;;
22211;SDS011;11275;52.488;13.462;2023-08-06T10:07:31;3.90;;;3.50;;
22211;SDS011;11275;52.488;13.462;2023-08-06T10:09:57;3.33;;;3.13;;
22211;SDS011;11275;52.488;13.462;2023-08-06T10:12:23;3.60;;;3.30;;
22211;SDS011;11275;52.488;13.462;2023-08-06T10:14:50;3.15;;;2.85;;
22211;SDS011;11275;52.488;13.462;2023-08-06T10:17:20;1.80;;;1.70;;
22211;SDS011;11275;52.488;13.462;2023-08-06T10:19:47;1.65;;;1.50;;
22211;SDS011;11275;52.488;13.462;2023-08-06T10:22:15;2.35;;;2.15;;
22211;SDS011;11275;52.488;13.462;2023-08-06T10:24:55;2.28;;;2.13;;
22211;SDS011;11275;52.488;13.462;2023-08-06T10:27:22;2.72;;;2.53;;
22211;SDS011;11275;52.488;13.462;2023-08-06T10:33:01;2.50;;;2.30;;
22211;SDS011;11275;52.488;13.462;2023-08-06T10:37:57;2.38;;;2.17;;
22211;SDS011;11275;52.488;13.462;2023-08-06T10:40:24;2.67;;;2.38;;
22211;SDS011;11275;52.488;13.462;2023-08-06T10:42:51;2.40;;;2.20;;
22211;SDS011;11275;52.488;13.462;2023-08-06T10:45:20;4.55;;;2.65;;
22211;SDS011;11275;52.488;13.462;2023-08-06T10:47:49;2.50;;;2.30;;
22211;SDS011;11275;52.488;13.462;2023-08-06T10:50:15;3.45;;;2.50;;
22211;SDS011;11275;52.488;13.462;2023-08-06T10:52:46;2.78;;;2.58;;
22211;SDS011;11275;52.488;13.462;2023-08-06T10:55:22;3.58;;;3.28;;
22211;SDS011;11275;52.488;13.462;2023-08-06T10:57:52;3.27;;;3.07;;
22211;SDS011;11275;52.488;13.462;2023-08-06T11:00:22;2.67;;;2.47;;
22211;SDS011;11275;52.488;13.462;2023-08-06T11:02:51;2.38;;;2.17;;
22211;SDS011;11275;52.488;13.462;2023-08-06T11:05:17;2.45;;;2.25;;
22211;SDS011;11275;52.488;13.462;2023-08-06T11:07:43;2.30;;;2.20;;
22211;SDS011;11275;52.488;13.462;2023-08-06T11:10:12;2.40;;;2.20;;
22211;SDS011;11275;52.488;13.462;2023-08-06T11:12:38;2.55;;;2.35;;
22211;SDS011;11275;52.488;13.462;2023-08-06T11:15:05;2.97;;;2.67;;
22211;SDS011;11275;52.488;13.462;2023-08-06T11:17:31;2.80;;;2.60;;
22211;SDS011;11275;52.488;13.462;2023-08-06T11:20:02;2.50;;;2.30;;
22211;SDS011;11275;52.488;13.462;2023-08-06T11:22:30;2.75;;;2.55;;
22211;SDS011;11275;52.488;13.462;2023-08-06T11:24:57;3.05;;;2.85;;
22211;SDS011;11275;52.488;13.462;2023-08-06T11:27:23;2.70;;;2.50;;
22211;SDS011;11275;52.488;13.462;2023-08-06T11:29:51;2.70;;;2.50;;
22211;SDS011;11275;52.488;13.462;2023-08-06T11:32:17;2.60;;;2.40;;
22211;SDS011;11275;52.488;13.462;2023-08-06T11:34:43;3.15;;;2.67;;
22211;SDS011;11275;52.488;13.462;2023-08-06T11:37:09;3.08;;;2.88;;
22211;SDS011;11275;52.488;13.462;2023-08-06T11:39:36;2.58;;;2.30;;
22211;SDS011;11275;52.488;13.462;2023-08-06T11:42:02;2.83;;;2.63;;
22211;SDS011;11275;52.488;13.462;2023-08-06T11:44:30;3.25;;;2.28;;
22211;SDS011;11275;52.488;13.462;2023-08-06T11:46:59;2.50;;;2.23;;
22211;SDS011;11275;52.488;13.462;2023-08-06T11:52:11;3.20;;;2.60;;
22211;SDS011;11275;52.488;13.462;2023-08-06T11:54:48;3.53;;;3.20;;
22211;SDS011;11275;52.488;13.462;2023-08-06T11:57:24;4.93;;;3.47;;
22211;SDS011;11275;52.488;13.462;2023-08-06T11:59:54;3.80;;;3.43;;
22211;SDS011;11275;52.488;13.462;2023-08-06T12:02:20;4.88;;;4.38;;
22211;SDS011;11275;52.488;13.462;2023-08-06T12:05:01;2.95;;;2.75;;
22211;SDS011;11275;52.488;13.462;2023-08-06T12:10:20;4.18;;;3.60;;
22211;SDS011;11275;52.488;13.462;2023-08-06T12:12:46;3.80;;;3.40;;
22211;SDS011;11275;52.488;13.462;2023-08-06T12:15:13;3.47;;;3.17;;
22211;SDS011;11275;52.488;13.462;2023-08-06T12:17:39;3.35;;;3.05;;
22211;SDS011;11275;52.488;13.462;2023-08-06T12:20:05;4.32;;;3.35;;
22211;SDS011;11275;52.488;13.462;2023-08-06T12:22:32;3.92;;;3.40;;
22211;SDS011;11275;52.488;13.462;2023-08-06T12:25:02;3.63;;;3.33;;
22211;SDS011;11275;52.488;13.462;2023-08-06T12:27:36;3.75;;;3.10;;
22211;SDS011;11275;52.488;13.462;2023-08-06T12:30:06;7.22;;;6.53;;
22211;SDS011;11275;52.488;13.462;2023-08-06T12:32:33;9.63;;;8.18;;
22211;SDS011;11275;52.488;13.462;2023-08-06T12:34:59;4.97;;;4.57;;
22211;SDS011;11275;52.488;13.462;2023-08-06T12:37:26;7.43;;;6.72;;
22211;SDS011;11275;52.488;13.462;2023-08-06T12:39:52;8.80;;;8.00;;
22211;SDS011;11275;52.488;13.462;2023-08-06T12:42:18;5.90;;;5.40;;
22211;SDS011;11275;52.488;13.462;2023-08-06T12:44:44;8.75;;;7.90;;
22211;SDS011;11275;52.488;13.462;2023-08-06T12:47:09;5.97;;;5.47;;
22211;SDS011;11275;52.488;13.462;2023-08-06T12:49:35;5.63;;;4.78;;
22211;SDS011;11275;52.488;13.462;2023-08-06T12:52:01;6.07;;;5.57;;
22211;SDS011;11275;52.488;13.462;2023-08-06T12:54:27;7.10;;;6.50;;
22211;SDS011;11275;52.488;13.462;2023-08-06T12:56:53;6.30;;;5.80;;
22211;SDS011;11275;52.488;13.462;2023-08-06T12:59:19;6.70;;;6.10;;
22211;SDS011;11275;52.488;13.462;2023-08-06T13:01:45;8.40;;;7.70;;
22211;SDS011;11275;52.488;13.462;2023-08-06T13:04:11;6.22;;;5.72;;
22211;SDS011;11275;52.488;13.462;2023-08-06T13:06:37;10.45;;;9.55;;
22211;SDS011;11275;52.488;13.462;2023-08-06T13:09:07;6.80;;;6.20;;
22211;SDS011;11275;52.488;13.462;2023-08-06T13:11:34;6.75;;;6.15;;
22211;SDS011;11275;52.488;13.462;2023-08-06T13:14:05;6.93;;;6.32;;
22211;SDS011;11275;52.488;13.462;2023-08-06T13:16:32;6.53;;;5.85;;
22211;SDS011;11275;52.488;13.462;2023-08-06T13:18:58;6.40;;;5.90;;
22211;SDS011;11275;52.488;13.462;2023-08-06T13:21:24;5.82;;;5.30;;
22211;SDS011;11275;52.488;13.462;2023-08-06T13:23:49;6.20;;;5.70;;
22211;SDS011;11275;52.488;13.462;2023-08-06T13:26:15;6.50;;;5.95;;
22211;SDS011;11275;52.488;13.462;2023-08-06T13:28:41;6.20;;;5.70;;
22211;SDS011;11275;52.488;13.462;2023-08-06T13:31:07;5.75;;;5.25;;
22211;SDS011;11275;52.488;13.462;2023-08-06T13:33:32;5.80;;;5.30;;
22211;SDS011;11275;52.488;13.462;2023-08-06T13:35:58;5.90;;;5.40;;
22211;SDS011;11275;52.488;13.462;2023-08-06T13:38:23;6.05;;;5.50;;
22211;SDS011;11275;52.488;13.462;2023-08-06T13:40:49;5.82;;;5.32;;
22211;SDS011;11275;52.488;13.462;2023-08-06T13:43:15;5.78;;;5.28;;
22211;SDS011;11275;52.488;13.462;2023-08-06T13:45:42;6.07;;;5.47;;
22211;SDS011;11275;52.488;13.462;2023-08-06T13:48:07;5.53;;;5.03;;
22211;SDS011;11275;52.488;13.462;2023-08-06T13:50:34;5.20;;;4.80;;
22211;SDS011;11275;52.488;13.462;2023-08-06T13:52:59;5.82;;;5.32;;
22211;SDS011;11275;52.488;13.462;2023-08-06T13:55:25;5.47;;;5.07;;
22211;SDS011;11275;52.488;13.462;2023-08-06T13:57:51;6.65;;;6.05;;
22211;SDS011;11275;52.488;13.462;2023-08-06T14:00:17;8.40;;;7.60;;
22211;SDS011;11275;52.488;13.462;2023-08-06T14:02:43;7.78;;;7.07;;
22211;SDS011;11275;52.488;13.462;2023-08-06T14:05:11;9.70;;;8.90;;
22211;SDS011;11275;52.488;13.462;2023-08-06T14:07:37;8.07;;;7.38;;
22211;SDS011;11275;52.488;13.462;2023-08-06T14:10:02;6.13;;;5.63;;
22211;SDS011;11275;52.488;13.462;2023-08-06T14:12:28;5.93;;;5.43;;
22211;SDS011;11275;52.488;13.462;2023-08-06T14:14:54;5.93;;;5.43;;
22211;SDS011;11275;52.488;13.462;2023-08-06T14:17:19;6.38;;;5.78;;
22211;SDS011;11275;52.488;13.462;2023-08-06T14:19:45;6.47;;;5.95;;
22211;SDS011;11275;52.488;13.462;2023-08-06T14:22:10;4.53;;;4.13;;
22211;SDS011;11275;52.488;13.462;2023-08-06T14:24:36;3.90;;;3.30;;
22211;SDS011;11275;52.488;13.462;2023-08-06T14:27:02;4.88;;;4.07;;
22211;SDS011;11275;52.488;13.462;2023-08-06T14:29:29;4.00;;;3.60;;
22211;SDS011;11275;52.488;13.462;2023-08-06T14:31:54;3.53;;;3.20;;
22211;SDS011;11275;52.488;13.462;2023-08-06T14:34:20;3.30;;;3.00;;
22211;SDS011;11275;52.488;13.462;2023-08-06T14:36:46;3.38;;;3.08;;
22211;SDS011;11275;52.488;13.462;2023-08-06T14:39:11;3.53;;;3.22;;
22211;SDS011;11275;52.488;13.462;2023-08-06T14:41:37;3.20;;;2.90;;
22211;SDS011;11275;52.488;13.462;2023-08-06T14:44:02;3.20;;;2.80;;
22211;SDS011;11275;52.488;13.462;2023-08-06T14:46:28;3.45;;;2.70;;